createdAt,value
2024-04-10T00:00:19.674Z,4.10
2024-04-10T00:01:19.682Z,3.60
2024-04-10T00:02:19.717Z,3.60
2024-04-10T00:03:22.064Z,3.60
2024-04-10T00:04:20.677Z,4.00
2024-04-10T00:05:19.897Z,3.60
2024-04-10T00:06:19.746Z,4.00
2024-04-10T00:07:51.584Z,3.20
2024-04-10T00:08:19.643Z,3.20
2024-04-10T00:09:19.592Z,4.00
2024-04-10T00:10:19.651Z,5.30
2024-04-10T00:11:19.738Z,5.60
2024-04-10T00:12:19.629Z,4.60
2024-04-10T00:13:19.569Z,4.90
2024-04-10T00:14:19.590Z,6.50
2024-04-10T00:15:19.548Z,6.40
2024-04-10T00:16:19.570Z,6.30
2024-04-10T00:17:19.655Z,5.50
2024-04-10T00:18:19.600Z,5.70
2024-04-10T00:19:19.625Z,5.70
2024-04-10T00:20:19.583Z,5.80
2024-04-10T00:21:19.528Z,3.60
2024-04-10T00:22:19.508Z,3.80
2024-04-10T00:23:19.567Z,4.10
2024-04-10T00:24:19.482Z,4.00
2024-04-10T00:25:19.493Z,4.00
2024-04-10T00:26:19.503Z,4.20
2024-04-10T00:27:19.455Z,4.40
2024-04-10T00:28:19.454Z,3.80
2024-04-10T00:29:19.469Z,3.30
2024-04-10T00:30:19.468Z,3.30
2024-04-10T00:31:19.423Z,2.80
2024-04-10T00:32:19.608Z,2.80
2024-04-10T00:33:19.560Z,2.70
2024-04-10T00:34:19.593Z,2.20
2024-04-10T00:35:19.468Z,2.20
2024-04-10T00:36:19.388Z,2.40
2024-04-10T00:37:19.373Z,2.10
2024-04-10T00:38:19.388Z,1.90
2024-04-10T00:39:20.381Z,2.00
2024-04-10T00:40:19.349Z,1.90
2024-04-10T00:41:19.395Z,2.10
2024-04-10T00:42:19.330Z,2.20
2024-04-10T00:43:19.322Z,2.10
2024-04-10T00:44:19.412Z,2.00
2024-04-10T00:45:19.320Z,2.40
2024-04-10T00:46:19.306Z,3.50
2024-04-10T00:47:19.427Z,4.30
2024-04-10T00:48:19.540Z,3.60
2024-04-10T00:49:19.370Z,3.60
2024-04-10T00:50:19.386Z,2.70
2024-04-10T00:51:19.303Z,2.30
2024-04-10T00:52:19.261Z,2.90
2024-04-10T00:53:19.336Z,2.90
2024-04-10T00:54:19.295Z,2.50
2024-04-10T00:55:19.252Z,3.20
2024-04-10T00:56:22.166Z,4.50
2024-04-10T00:57:20.221Z,4.20
2024-04-10T00:58:19.267Z,4.30
2024-04-10T00:59:19.454Z,4.40
2024-04-10T01:00:19.195Z,4.80
2024-04-10T01:01:19.244Z,5.30
2024-04-10T01:02:19.249Z,5.80
2024-04-10T01:03:19.292Z,6.60
2024-04-10T01:04:19.192Z,4.70
2024-04-10T01:05:19.196Z,3.90
2024-04-10T01:06:19.146Z,4.20
2024-04-10T01:07:19.163Z,4.00
2024-04-10T01:08:19.196Z,4.20
2024-04-10T01:09:19.182Z,3.50
2024-04-10T01:10:19.114Z,3.10
2024-04-10T01:11:19.387Z,2.30
2024-04-10T01:12:19.155Z,2.20
2024-04-10T01:13:19.112Z,2.20
2024-04-10T01:14:19.105Z,2.10
2024-04-10T01:15:19.079Z,2.20
2024-04-10T01:16:19.187Z,2.30
2024-04-10T01:17:19.174Z,2.00
2024-04-10T01:18:19.139Z,2.10
2024-04-10T01:19:19.045Z,2.60
2024-04-10T01:20:19.119Z,2.20
2024-04-10T01:21:19.039Z,2.30
2024-04-10T01:22:19.058Z,2.20
2024-04-10T01:23:19.165Z,2.20
2024-04-10T01:24:19.010Z,2.00
2024-04-10T01:25:19.044Z,2.40
2024-04-10T01:26:19.181Z,2.70
2024-04-10T01:27:19.054Z,2.80
2024-04-10T01:28:18.979Z,2.90
2024-04-10T01:29:19.116Z,3.10
2024-04-10T01:30:18.969Z,2.50
2024-04-10T01:31:18.996Z,2.20
2024-04-10T01:32:19.144Z,2.20
2024-04-10T01:33:19.116Z,2.40
2024-04-10T01:34:19.049Z,2.30
2024-04-10T01:35:18.967Z,2.30
2024-04-10T01:36:18.944Z,2.20
2024-04-10T01:37:18.932Z,2.40
2024-04-10T01:38:18.915Z,2.10
2024-04-10T01:39:18.897Z,2.30
2024-04-10T01:40:18.938Z,2.50
2024-04-10T01:41:19.001Z,2.20
2024-04-10T01:42:18.890Z,2.30
2024-04-10T01:43:18.958Z,2.30
2024-04-10T01:44:18.929Z,2.20
2024-04-10T01:45:18.878Z,2.20
2024-04-10T01:46:18.831Z,2.40
2024-04-10T01:47:18.919Z,2.40
2024-04-10T01:48:18.939Z,2.20
2024-04-10T01:49:18.889Z,2.20
2024-04-10T01:50:18.948Z,2.20
2024-04-10T01:51:18.800Z,2.30
2024-04-10T01:52:18.792Z,2.20
2024-04-10T01:53:18.886Z,2.10
2024-04-10T01:54:18.814Z,2.10
2024-04-10T01:55:18.794Z,2.00
2024-04-10T01:56:18.826Z,2.20
2024-04-10T01:57:18.755Z,1.90
2024-04-10T01:58:18.744Z,2.00
2024-04-10T01:59:18.829Z,2.10
2024-04-10T02:00:18.748Z,2.20
2024-04-10T02:01:18.743Z,2.40
2024-04-10T02:02:18.846Z,2.20
2024-04-10T02:03:18.802Z,2.40
2024-04-10T02:04:18.753Z,2.10
2024-04-10T02:05:18.748Z,2.00
2024-04-10T02:06:18.686Z,2.20
2024-04-10T02:07:18.691Z,2.10
2024-04-10T02:08:18.825Z,1.80
2024-04-10T02:09:18.695Z,2.00
2024-04-10T02:10:18.685Z,2.00
2024-04-10T02:11:18.732Z,2.20
2024-04-10T02:12:18.715Z,1.90
2024-04-10T02:13:18.653Z,2.20
2024-04-10T02:14:18.675Z,2.00
2024-04-10T02:15:18.638Z,2.00
2024-04-10T02:16:18.695Z,1.90
2024-04-10T02:17:18.599Z,1.70
2024-04-10T02:18:18.708Z,2.00
2024-04-10T02:19:18.588Z,2.00
2024-04-10T02:20:18.639Z,1.90
2024-04-10T02:21:18.617Z,1.80
2024-04-10T02:22:18.585Z,1.90
2024-04-10T02:23:18.603Z,2.00
2024-04-10T02:24:18.545Z,1.90
2024-04-10T02:25:18.550Z,1.70
2024-04-10T02:26:18.566Z,1.70
2024-04-10T02:27:18.567Z,1.70
2024-04-10T02:28:18.514Z,1.80
2024-04-10T02:29:18.567Z,1.80
2024-04-10T02:30:18.501Z,1.70
2024-04-10T02:31:18.503Z,1.80
2024-04-10T02:32:18.677Z,1.80
2024-04-10T02:33:18.605Z,2.00
2024-04-10T02:34:18.668Z,1.90
2024-04-10T02:35:18.617Z,1.80
2024-04-10T02:36:18.497Z,1.80
2024-04-10T02:37:18.475Z,1.70
2024-04-10T02:38:18.500Z,2.00
2024-04-10T02:39:18.434Z,1.60
2024-04-10T02:40:18.437Z,1.70
2024-04-10T02:41:18.533Z,1.60
2024-04-10T02:42:18.423Z,1.70
2024-04-10T02:43:18.456Z,1.70
2024-04-10T02:44:18.432Z,1.50
2024-04-10T02:45:18.393Z,1.60
2024-04-10T02:46:18.431Z,1.90
2024-04-10T02:47:18.430Z,1.70
2024-04-10T02:48:18.383Z,1.50
2024-04-10T02:49:18.371Z,1.70
2024-04-10T02:50:18.428Z,1.50
2024-04-10T02:51:18.380Z,1.40
2024-04-10T02:52:18.357Z,2.00
2024-04-10T02:53:18.371Z,2.00
2024-04-10T02:54:18.329Z,2.50
2024-04-10T02:55:18.350Z,3.00
2024-04-10T02:56:18.359Z,2.80
2024-04-10T02:57:18.306Z,3.70
2024-04-10T02:58:18.302Z,2.50
2024-04-10T02:59:18.322Z,2.10
2024-04-10T03:00:18.300Z,2.00
2024-04-10T03:01:18.324Z,3.10
2024-04-10T03:02:18.388Z,2.10
2024-04-10T03:03:18.324Z,2.50
2024-04-10T03:04:18.255Z,2.30
2024-04-10T03:05:18.333Z,3.60
2024-04-10T03:06:18.249Z,3.70
2024-04-10T03:07:18.242Z,3.60
2024-04-10T03:08:18.297Z,2.60
2024-04-10T03:09:18.206Z,2.70
2024-04-10T03:10:18.262Z,1.80
2024-04-10T03:11:18.323Z,2.10
2024-04-10T03:12:18.269Z,2.10
2024-04-10T03:13:18.189Z,1.50
2024-04-10T03:14:18.423Z,1.90
2024-04-10T03:15:18.222Z,1.80
2024-04-10T03:16:18.211Z,2.10
2024-04-10T03:17:18.305Z,2.40
2024-04-10T03:18:18.257Z,2.80
2024-04-10T03:19:18.187Z,2.20
2024-04-10T03:20:18.315Z,2.20
2024-04-10T03:21:18.126Z,2.00
2024-04-10T03:22:18.134Z,1.90
2024-04-10T03:23:18.139Z,2.00
2024-04-10T03:24:18.182Z,1.70
2024-04-10T03:25:18.097Z,1.90
2024-04-10T03:26:18.150Z,2.10
2024-04-10T03:27:18.087Z,2.10
2024-04-10T03:28:18.094Z,2.40
2024-04-10T03:29:18.138Z,2.20
2024-04-10T03:30:18.067Z,1.90
2024-04-10T03:31:18.067Z,1.80
2024-04-10T03:32:18.075Z,2.00
2024-04-10T03:33:18.145Z,2.00
2024-04-10T03:34:18.095Z,2.10
2024-04-10T03:35:18.114Z,1.90
2024-04-10T03:36:18.023Z,2.00
2024-04-10T03:37:18.006Z,2.10
2024-04-10T03:38:18.104Z,1.90
2024-04-10T03:39:17.992Z,2.00
2024-04-10T03:40:18.003Z,2.00
2024-04-10T03:41:18.019Z,2.00
2024-04-10T03:42:17.969Z,2.20
2024-04-10T03:43:18.018Z,2.00
2024-04-10T03:44:17.985Z,1.90
2024-04-10T03:45:17.987Z,2.10
2024-04-10T03:46:17.941Z,2.00
2024-04-10T03:47:18.027Z,1.80
2024-04-10T03:48:18.120Z,1.80
2024-04-10T03:49:17.945Z,1.90
2024-04-10T03:50:19.473Z,2.10
2024-04-10T03:51:18.981Z,1.90
2024-04-10T03:52:17.918Z,2.10
2024-04-10T03:53:17.906Z,1.90
2024-04-10T03:54:17.878Z,1.90
2024-04-10T03:55:17.861Z,1.80
2024-04-10T03:56:18.833Z,2.10
2024-04-10T03:57:17.893Z,1.90
2024-04-10T03:58:17.856Z,2.00
2024-04-10T03:59:17.881Z,1.90
2024-04-10T04:00:17.845Z,2.00
2024-04-10T04:01:17.906Z,2.20
2024-04-10T04:02:17.892Z,2.20
2024-04-10T04:03:17.922Z,2.20
2024-04-10T04:04:17.875Z,2.40
2024-04-10T04:05:17.912Z,3.00
2024-04-10T04:06:17.962Z,3.20
2024-04-10T04:07:17.800Z,2.50
2024-04-10T04:08:17.901Z,2.70
2024-04-10T04:09:17.777Z,3.20
2024-04-10T04:10:17.748Z,3.80
2024-04-10T04:11:17.870Z,2.50
2024-04-10T04:12:20.727Z,2.70
2024-04-10T04:13:17.723Z,2.70
2024-04-10T04:14:17.782Z,3.00
2024-04-10T04:15:17.740Z,2.40
2024-04-10T04:16:17.787Z,2.50
2024-04-10T04:17:17.735Z,2.50
2024-04-10T04:18:18.146Z,2.40
2024-04-10T04:19:17.679Z,2.30
2024-04-10T04:20:17.738Z,2.40
2024-04-10T04:21:17.692Z,2.50
2024-04-10T04:22:17.660Z,2.40
2024-04-10T04:23:17.734Z,2.30
2024-04-10T04:24:17.639Z,2.10
2024-04-10T04:25:17.665Z,2.90
2024-04-10T04:26:17.694Z,2.30
2024-04-10T04:27:17.610Z,2.50
2024-04-10T04:28:17.602Z,2.80
2024-04-10T04:29:17.619Z,2.50
2024-04-10T04:30:17.659Z,2.80
2024-04-10T04:31:17.596Z,2.90
2024-04-10T04:32:17.678Z,2.70
2024-04-10T04:33:17.678Z,2.60
2024-04-10T04:34:17.757Z,2.80
2024-04-10T04:35:17.631Z,3.40
2024-04-10T04:36:17.544Z,3.10
2024-04-10T04:37:17.537Z,3.00
2024-04-10T04:38:17.643Z,2.50
2024-04-10T04:39:17.540Z,2.40
2024-04-10T04:40:17.536Z,2.30
2024-04-10T04:41:17.539Z,2.60
2024-04-10T04:42:17.500Z,2.50
2024-04-10T04:43:17.498Z,2.60
2024-04-10T04:44:17.568Z,2.40
2024-04-10T04:45:17.480Z,2.50
2024-04-10T04:46:17.507Z,2.50
2024-04-10T04:47:18.557Z,2.50
2024-04-10T04:48:17.747Z,2.60
2024-04-10T04:49:17.492Z,2.60
2024-04-10T04:50:17.441Z,2.70
2024-04-10T04:51:17.431Z,2.70
2024-04-10T04:52:17.418Z,2.50
2024-04-10T04:53:18.463Z,2.70
2024-04-10T04:54:17.447Z,2.80
2024-04-10T04:55:17.445Z,2.50
2024-04-10T04:56:17.459Z,2.40
2024-04-10T04:57:17.387Z,2.30
2024-04-10T04:58:17.467Z,2.40
2024-04-10T04:59:17.574Z,2.40
2024-04-10T05:00:17.383Z,2.80
2024-04-10T05:01:17.391Z,2.50
2024-04-10T05:02:17.449Z,2.70
2024-04-10T05:03:17.505Z,2.70
2024-04-10T05:04:17.403Z,2.70
2024-04-10T05:05:17.470Z,2.60
2024-04-10T05:06:19.541Z,2.30
2024-04-10T05:07:18.349Z,2.50
2024-04-10T05:08:17.345Z,2.40
2024-04-10T05:09:17.293Z,2.60
2024-04-10T05:10:17.315Z,2.50
2024-04-10T05:11:17.343Z,2.70
2024-04-10T05:12:17.500Z,2.40
2024-04-10T05:13:17.262Z,2.50
2024-04-10T05:14:17.310Z,2.60
2024-04-10T05:15:17.272Z,2.40
2024-04-10T05:16:17.254Z,2.20
2024-04-10T05:17:17.364Z,2.20
2024-04-10T05:18:17.235Z,2.80
2024-04-10T05:19:17.224Z,2.80
2024-04-10T05:20:18.572Z,2.80
2024-04-10T05:21:17.207Z,2.50
2024-04-10T05:22:17.225Z,2.40
2024-04-10T05:23:17.384Z,2.80
2024-04-10T05:24:17.176Z,3.00
2024-04-10T05:25:17.164Z,2.90
2024-04-10T05:26:17.215Z,2.80
2024-04-10T05:27:17.191Z,2.90
2024-04-10T05:28:17.138Z,3.00
2024-04-10T05:29:17.176Z,2.80
2024-04-10T05:30:17.127Z,3.80
2024-04-10T05:31:17.141Z,4.70
2024-04-10T05:32:17.129Z,4.60
2024-04-10T05:33:17.167Z,3.90
2024-04-10T05:34:17.317Z,3.70
2024-04-10T05:35:17.262Z,3.60
2024-04-10T05:36:17.105Z,2.80
2024-04-10T05:37:17.064Z,2.60
2024-04-10T05:38:17.119Z,2.60
2024-04-10T05:39:17.056Z,2.30
2024-04-10T05:40:17.129Z,2.50
2024-04-10T05:41:17.723Z,2.30
2024-04-10T05:42:18.038Z,2.40
2024-04-10T05:43:17.037Z,3.40
2024-04-10T05:44:17.049Z,4.30
2024-04-10T05:45:17.030Z,4.20
2024-04-10T05:46:17.064Z,2.90
2024-04-10T05:47:17.020Z,2.90
2024-04-10T05:48:17.151Z,2.90
2024-04-10T05:49:16.975Z,2.70
2024-04-10T05:50:17.071Z,2.80
2024-04-10T05:51:17.001Z,3.10
2024-04-10T05:52:16.955Z,3.30
2024-04-10T05:53:17.067Z,3.50
2024-04-10T05:54:16.931Z,3.60
2024-04-10T05:55:17.041Z,3.20
2024-04-10T05:56:17.012Z,3.40
2024-04-10T05:57:16.911Z,3.20
2024-04-10T05:58:16.898Z,3.10
2024-04-10T05:59:17.935Z,3.60
2024-04-10T06:00:16.926Z,3.50
2024-04-10T06:01:16.917Z,3.20
2024-04-10T06:02:17.027Z,3.50
2024-04-10T06:03:16.985Z,3.00
2024-04-10T06:04:16.919Z,2.80
2024-04-10T06:05:17.031Z,3.00
2024-04-10T06:06:16.846Z,3.20
2024-04-10T06:07:16.825Z,3.50
2024-04-10T06:08:50.359Z,3.20
2024-04-10T06:09:16.859Z,3.10
2024-04-10T06:10:16.806Z,2.80
2024-04-10T06:11:16.973Z,3.30
2024-04-10T06:12:16.917Z,3.50
2024-04-10T06:13:16.794Z,3.40
2024-04-10T06:14:16.852Z,3.10
2024-04-10T06:15:16.786Z,3.30
2024-04-10T06:16:16.786Z,3.50
2024-04-10T06:17:16.804Z,3.20
2024-04-10T06:18:16.868Z,3.10
2024-04-10T06:19:16.768Z,2.80
2024-04-10T06:20:16.785Z,3.30
2024-04-10T06:21:16.750Z,3.30
2024-04-10T06:22:18.899Z,2.90
2024-04-10T06:23:17.785Z,3.70
2024-04-10T06:24:16.701Z,3.50
2024-04-10T06:25:16.694Z,3.30
2024-04-10T06:26:16.767Z,2.80
2024-04-10T06:27:16.688Z,3.90
2024-04-10T06:28:16.707Z,3.50
2024-04-10T06:29:16.732Z,3.00
2024-04-10T06:30:16.667Z,2.80
2024-04-10T06:31:16.660Z,5.40
2024-04-10T06:32:17.123Z,4.60
2024-04-10T06:33:16.784Z,3.20
2024-04-10T06:34:16.771Z,3.40
2024-04-10T06:35:16.648Z,3.00
2024-04-10T06:36:16.638Z,2.70
2024-04-10T06:37:16.661Z,3.00
2024-04-10T06:38:16.629Z,2.90
2024-04-10T06:39:16.593Z,3.30
2024-04-10T06:40:16.590Z,3.00
2024-04-10T06:41:16.677Z,2.70
2024-04-10T06:42:16.595Z,2.80
2024-04-10T06:43:16.568Z,2.90
2024-04-10T06:44:16.618Z,2.80
2024-04-10T06:45:16.563Z,3.10
2024-04-10T06:46:16.553Z,2.90
2024-04-10T06:47:16.673Z,4.30
2024-04-10T06:48:16.644Z,3.30
2024-04-10T06:49:16.683Z,3.40
2024-04-10T06:50:16.583Z,3.20
2024-04-10T06:51:16.540Z,3.70
2024-04-10T06:52:16.681Z,4.20
2024-04-10T06:53:16.627Z,4.30
2024-04-10T06:54:19.318Z,3.40
2024-04-10T06:55:17.520Z,3.20
2024-04-10T06:56:16.672Z,3.00
2024-04-10T06:57:17.567Z,3.10
2024-04-10T06:58:16.453Z,3.30
2024-04-10T06:59:16.485Z,3.20
2024-04-10T07:00:16.443Z,3.20
2024-04-10T07:01:17.034Z,3.20
2024-04-10T07:02:16.446Z,3.40
2024-04-10T07:03:16.443Z,3.30
2024-04-10T07:04:16.466Z,3.30
2024-04-10T07:05:16.471Z,3.20
2024-04-10T07:06:17.108Z,3.60
2024-04-10T07:07:16.392Z,3.20
2024-04-10T07:08:16.454Z,3.80
2024-04-10T07:09:16.391Z,3.30
2024-04-10T07:10:17.447Z,3.50
2024-04-10T07:11:20.186Z,3.90
2024-04-10T07:12:17.465Z,3.90
2024-04-10T07:13:16.352Z,3.80
2024-04-10T07:14:16.362Z,4.10
2024-04-10T07:15:16.360Z,4.20
2024-04-10T07:16:16.356Z,4.10
2024-04-10T07:17:16.414Z,4.30
2024-04-10T07:18:16.407Z,4.50
2024-04-10T07:19:16.303Z,4.30
2024-04-10T07:20:16.359Z,4.70
2024-04-10T07:21:16.294Z,4.20
2024-04-10T07:22:16.271Z,4.30
2024-04-10T07:23:16.297Z,4.10
2024-04-10T07:24:16.264Z,4.30
2024-04-10T07:25:16.386Z,4.20
2024-04-10T07:26:16.296Z,4.20
2024-04-10T07:27:16.229Z,4.30
2024-04-10T07:28:16.216Z,4.30
2024-04-10T07:29:16.277Z,4.70
2024-04-10T07:30:16.230Z,4.30
2024-04-10T07:31:16.203Z,4.10
2024-04-10T07:32:16.304Z,4.10
2024-04-10T07:33:16.296Z,4.50
2024-04-10T07:34:16.421Z,4.30
2024-04-10T07:35:16.190Z,4.20
2024-04-10T07:36:16.155Z,4.70
2024-04-10T07:37:16.146Z,4.10
2024-04-10T07:38:16.163Z,4.10
2024-04-10T07:39:16.157Z,4.10
2024-04-10T07:40:16.135Z,4.20
2024-04-10T07:41:16.201Z,4.40
2024-04-10T07:42:16.109Z,4.50
2024-04-10T07:43:16.097Z,4.60
2024-04-10T07:44:16.193Z,4.00
2024-04-10T07:45:16.088Z,4.40
2024-04-10T07:46:16.081Z,4.10
2024-04-10T07:47:16.286Z,4.10
2024-04-10T07:48:16.176Z,3.70
2024-04-10T07:49:16.164Z,3.90
2024-04-10T07:50:17.079Z,4.00
2024-04-10T07:51:16.042Z,4.00
2024-04-10T07:52:16.025Z,3.90
2024-04-10T07:53:16.105Z,3.70
2024-04-10T07:54:16.061Z,3.70
2024-04-10T07:55:16.000Z,3.90
2024-04-10T07:56:16.104Z,3.80
2024-04-10T07:57:15.992Z,3.90
2024-04-10T07:58:16.011Z,3.90
2024-04-10T07:59:16.082Z,4.00
2024-04-10T08:00:15.985Z,3.80
2024-04-10T08:01:15.986Z,3.50
2024-04-10T08:02:15.983Z,3.30
2024-04-10T08:03:16.026Z,3.50
2024-04-10T08:04:15.988Z,3.30
2024-04-10T08:05:15.952Z,3.10
2024-04-10T08:06:15.963Z,3.10
2024-04-10T08:07:15.935Z,3.10
2024-04-10T08:08:15.973Z,2.80
2024-04-10T08:09:15.896Z,2.80
2024-04-10T08:10:15.881Z,2.90
2024-04-10T08:11:16.490Z,3.00
2024-04-10T08:12:16.082Z,2.90
2024-04-10T08:13:15.893Z,2.80
2024-04-10T08:14:15.916Z,2.60
2024-04-10T08:15:15.834Z,2.80
2024-04-10T08:16:17.294Z,2.80
2024-04-10T08:17:16.087Z,2.80
2024-04-10T08:18:15.888Z,2.60
2024-04-10T08:19:15.839Z,2.80
2024-04-10T08:20:15.840Z,2.70
2024-04-10T08:21:16.096Z,2.60
2024-04-10T08:22:15.820Z,2.70
2024-04-10T08:23:15.855Z,2.90
2024-04-10T08:24:15.763Z,3.00
2024-04-10T08:25:15.755Z,2.90
2024-04-10T08:26:15.862Z,2.90
2024-04-10T08:27:15.797Z,3.00
2024-04-10T08:28:15.742Z,2.90
2024-04-10T08:29:15.762Z,3.00
2024-04-10T08:30:15.721Z,2.70
2024-04-10T08:31:15.737Z,3.00
2024-04-10T08:32:15.760Z,2.90
2024-04-10T08:33:15.780Z,3.10
2024-04-10T08:34:15.837Z,2.90
2024-04-10T08:35:15.803Z,3.10
2024-04-10T08:36:15.821Z,3.20
2024-04-10T08:37:15.665Z,3.10
2024-04-10T08:38:15.751Z,3.00
2024-04-10T08:39:15.655Z,2.90
2024-04-10T08:40:15.692Z,2.90
2024-04-10T08:41:15.660Z,3.00
2024-04-10T08:42:15.662Z,2.80
2024-04-10T08:43:15.789Z,2.90
2024-04-10T08:44:15.609Z,2.90
2024-04-10T08:45:16.732Z,2.90
2024-04-10T08:46:16.622Z,3.00
2024-04-10T08:47:15.763Z,3.10
2024-04-10T08:48:15.700Z,3.00
2024-04-10T08:49:15.692Z,2.90
2024-04-10T08:50:15.600Z,3.00
2024-04-10T08:51:15.681Z,2.80
2024-04-10T08:52:15.559Z,3.10
2024-04-10T08:53:15.569Z,3.00
2024-04-10T08:54:15.589Z,3.00
2024-04-10T08:55:15.590Z,2.70
2024-04-10T08:56:15.566Z,16.60
2024-04-10T08:57:15.550Z,4.80
2024-04-10T08:58:48.905Z,3.50
2024-04-10T08:59:15.519Z,5.60
2024-04-10T09:00:15.596Z,3.60
2024-04-10T09:01:15.548Z,4.30
2024-04-10T09:02:15.470Z,2.80
2024-04-10T09:03:15.638Z,3.30
2024-04-10T09:04:15.640Z,3.00
2024-04-10T09:05:15.585Z,2.60
2024-04-10T09:06:15.490Z,5.20
2024-04-10T09:07:15.460Z,5.30
2024-04-10T09:08:15.431Z,3.00
2024-04-10T09:09:15.500Z,3.70
2024-04-10T09:10:15.432Z,3.00
2024-04-10T09:11:15.427Z,3.10
2024-04-10T09:12:15.393Z,5.00
2024-04-10T09:13:15.386Z,3.00
2024-04-10T09:14:16.589Z,5.00
2024-04-10T09:15:15.439Z,4.20
2024-04-10T09:16:15.379Z,3.30
2024-04-10T09:17:15.366Z,2.90
2024-04-10T09:18:15.361Z,3.00
2024-04-10T09:19:15.417Z,3.10
2024-04-10T09:20:15.342Z,3.10
2024-04-10T09:21:15.321Z,3.20
2024-04-10T09:22:15.325Z,3.10
2024-04-10T09:23:15.350Z,3.10
2024-04-10T09:24:15.524Z,3.10
2024-04-10T09:25:15.399Z,3.10
2024-04-10T09:26:15.342Z,3.20
2024-04-10T09:27:15.288Z,3.20
2024-04-10T09:28:15.308Z,3.10
2024-04-10T09:29:16.358Z,3.40
2024-04-10T09:30:15.256Z,3.10
2024-04-10T09:31:15.252Z,3.10
2024-04-10T09:32:15.326Z,3.10
2024-04-10T09:33:15.732Z,3.20
2024-04-10T09:34:15.424Z,3.10
2024-04-10T09:35:15.297Z,3.20
2024-04-10T09:36:15.209Z,3.00
2024-04-10T09:37:15.195Z,2.80
2024-04-10T09:38:15.237Z,3.00
2024-04-10T09:39:15.176Z,3.00
2024-04-10T09:40:15.165Z,3.10
2024-04-10T09:41:15.207Z,3.20
2024-04-10T09:42:15.175Z,3.30
2024-04-10T09:43:15.185Z,3.20
2024-04-10T09:44:15.226Z,3.40
2024-04-10T09:45:15.177Z,3.20
2024-04-10T09:46:15.153Z,2.90
2024-04-10T09:47:15.209Z,3.00
2024-04-10T09:48:16.243Z,3.20
2024-04-10T09:49:15.222Z,3.10
2024-04-10T09:50:15.158Z,3.30
2024-04-10T09:51:15.139Z,3.20
2024-04-10T09:52:15.112Z,3.30
2024-04-10T09:53:15.147Z,3.50
2024-04-10T09:54:15.095Z,3.40
2024-04-10T09:55:15.083Z,3.50
2024-04-10T09:56:15.118Z,3.50
2024-04-10T09:57:15.074Z,3.40
2024-04-10T09:58:15.185Z,3.00
2024-04-10T09:59:15.953Z,3.00
2024-04-10T10:00:15.055Z,3.30
2024-04-10T10:01:15.089Z,3.30
2024-04-10T10:02:15.099Z,3.00
2024-04-10T10:03:15.157Z,3.40
2024-04-10T10:04:15.024Z,3.20
2024-04-10T10:05:15.034Z,3.00
2024-04-10T10:06:15.042Z,2.70
2024-04-10T10:07:15.004Z,2.50
2024-04-10T10:08:15.137Z,2.50
2024-04-10T10:09:14.957Z,2.40
2024-04-10T10:10:14.993Z,2.40
2024-04-10T10:11:15.068Z,2.40
2024-04-10T10:12:14.978Z,2.50
2024-04-10T10:13:14.923Z,2.40
2024-04-10T10:14:14.997Z,2.30
2024-04-10T10:15:14.910Z,2.30
2024-04-10T10:16:15.041Z,2.40
2024-04-10T10:17:14.942Z,2.40
2024-04-10T10:18:18.584Z,2.50
2024-04-10T10:19:17.000Z,2.30
2024-04-10T10:20:14.937Z,2.50
2024-04-10T10:21:14.896Z,3.30
2024-04-10T10:22:14.855Z,2.50
2024-04-10T10:23:14.891Z,2.40
2024-04-10T10:24:14.970Z,2.60
2024-04-10T10:25:14.869Z,2.40
2024-04-10T10:26:14.856Z,2.30
2024-04-10T10:27:14.878Z,2.40
2024-04-10T10:28:14.830Z,2.40
2024-04-10T10:29:16.798Z,2.60
2024-04-10T10:30:15.880Z,2.50
2024-04-10T10:31:14.790Z,2.40
2024-04-10T10:32:14.856Z,2.70
2024-04-10T10:33:14.860Z,2.60
2024-04-10T10:34:16.560Z,2.40
2024-04-10T10:35:18.750Z,2.60
2024-04-10T10:36:14.812Z,2.50
2024-04-10T10:37:17.156Z,2.40
2024-04-10T10:38:15.807Z,2.30
2024-04-10T10:39:16.688Z,2.50
2024-04-10T10:40:14.718Z,2.60
2024-04-10T10:41:18.704Z,2.50
2024-04-10T10:42:15.800Z,2.50
2024-04-10T10:43:14.701Z,2.70
2024-04-10T10:44:14.756Z,2.50
2024-04-10T10:45:14.676Z,2.70
2024-04-10T10:46:14.691Z,2.70
2024-04-10T10:47:14.721Z,2.80
2024-04-10T10:48:14.776Z,2.90
2024-04-10T10:49:14.755Z,2.60
2024-04-10T10:50:14.698Z,3.00
2024-04-10T10:51:14.649Z,2.70
2024-04-10T10:52:14.624Z,2.80
2024-04-10T10:53:14.720Z,2.50
2024-04-10T10:54:14.611Z,2.70
2024-04-10T10:55:14.618Z,2.50
2024-04-10T10:56:14.647Z,2.60
2024-04-10T10:57:14.592Z,2.40
2024-04-10T10:58:14.620Z,2.50
2024-04-10T10:59:14.591Z,3.10
2024-04-10T11:00:14.568Z,3.00
2024-04-10T11:01:14.634Z,2.90
2024-04-10T11:02:14.689Z,2.80
2024-04-10T11:03:20.840Z,3.00
2024-04-10T11:04:15.811Z,3.00
2024-04-10T11:05:14.682Z,3.10
2024-04-10T11:06:14.754Z,3.10
2024-04-10T11:07:14.543Z,3.10
2024-04-10T11:08:14.554Z,2.60
2024-04-10T11:09:14.585Z,3.10
2024-04-10T11:10:14.535Z,3.10
2024-04-10T11:11:14.577Z,3.00
2024-04-10T11:12:14.589Z,2.80
2024-04-10T11:13:14.478Z,3.00
2024-04-10T11:14:14.555Z,3.10
2024-04-10T11:15:14.457Z,3.00
2024-04-10T11:16:14.504Z,2.90
2024-04-10T11:17:14.559Z,2.80
2024-04-10T11:18:14.521Z,3.10
2024-04-10T11:19:14.423Z,3.10
2024-04-10T11:20:14.451Z,3.00
2024-04-10T11:21:14.429Z,2.90
2024-04-10T11:22:14.424Z,2.90
2024-04-10T11:23:14.392Z,2.90
2024-04-10T11:24:14.388Z,3.00
2024-04-10T11:25:14.374Z,3.00
2024-04-10T11:26:14.515Z,3.00
2024-04-10T11:27:14.361Z,3.20
2024-04-10T11:28:14.461Z,3.10
2024-04-10T11:29:14.378Z,3.20
2024-04-10T11:30:14.333Z,2.90
2024-04-10T11:31:14.351Z,2.70
2024-04-10T11:32:14.407Z,2.80
2024-04-10T11:33:14.678Z,2.80
2024-04-10T11:34:14.574Z,2.80
2024-04-10T11:35:14.355Z,3.20
2024-04-10T11:36:14.343Z,3.00
2024-04-10T11:37:14.287Z,2.90
2024-04-10T11:38:14.316Z,3.20
2024-04-10T11:39:14.328Z,2.90
2024-04-10T11:40:14.335Z,2.60
2024-04-10T11:41:14.317Z,2.70
2024-04-10T11:42:14.266Z,2.70
2024-04-10T11:43:14.227Z,2.70
2024-04-10T11:44:14.277Z,2.50
2024-04-10T11:45:14.259Z,2.70
2024-04-10T11:46:14.196Z,2.60
2024-04-10T11:47:14.327Z,2.60
2024-04-10T11:48:14.299Z,2.70
2024-04-10T11:49:14.329Z,2.90
2024-04-10T11:50:14.978Z,2.90
2024-04-10T11:51:14.160Z,2.80
2024-04-10T11:52:14.177Z,2.90
2024-04-10T11:53:14.195Z,3.00
2024-04-10T11:54:14.174Z,2.90
2024-04-10T11:55:14.172Z,2.80
2024-04-10T11:56:14.309Z,3.00
2024-04-10T11:57:14.133Z,2.90
2024-04-10T11:58:14.149Z,2.60
2024-04-10T11:59:14.284Z,2.60
2024-04-10T12:00:14.166Z,2.80
2024-04-10T12:01:14.092Z,2.80
2024-04-10T12:02:14.133Z,2.90
2024-04-10T12:03:14.188Z,2.70
2024-04-10T12:04:14.221Z,2.70
2024-04-10T12:05:14.396Z,2.80
2024-04-10T12:06:14.145Z,2.80
2024-04-10T12:07:14.039Z,2.80
2024-04-10T12:08:14.090Z,2.70
2024-04-10T12:09:14.119Z,2.80
2024-04-10T12:10:14.019Z,2.80
2024-04-10T12:11:14.203Z,2.50
2024-04-10T12:12:15.092Z,2.50
2024-04-10T12:13:14.050Z,2.30
2024-04-10T12:14:14.048Z,2.30
2024-04-10T12:15:13.972Z,2.50
2024-04-10T12:16:13.978Z,2.20
2024-04-10T12:17:14.191Z,2.50
2024-04-10T12:18:14.041Z,2.40
2024-04-10T12:19:13.971Z,2.40
2024-04-10T12:20:13.985Z,2.50
2024-04-10T12:21:13.990Z,2.80
2024-04-10T12:22:13.931Z,2.50
2024-04-10T12:23:14.050Z,2.50
2024-04-10T12:24:13.947Z,2.40
2024-04-10T12:25:13.898Z,2.30
2024-04-10T12:26:13.948Z,2.50
2024-04-10T12:27:13.915Z,2.50
2024-04-10T12:28:13.924Z,2.40
2024-04-10T12:29:13.900Z,2.20
2024-04-10T12:30:13.944Z,2.50
2024-04-10T12:31:13.897Z,2.20
2024-04-10T12:32:14.073Z,2.50
2024-04-10T12:33:14.051Z,2.20
2024-04-10T12:34:13.964Z,2.20
2024-04-10T12:35:13.894Z,2.30
2024-04-10T12:36:13.895Z,2.20
2024-04-10T12:37:13.849Z,2.30
2024-04-10T12:38:13.890Z,2.20
2024-04-10T12:39:13.788Z,2.00
2024-04-10T12:40:13.814Z,2.00
2024-04-10T12:41:13.823Z,2.00
2024-04-10T12:42:13.846Z,2.30
2024-04-10T12:43:13.772Z,2.10
2024-04-10T12:44:13.774Z,1.90
2024-04-10T12:45:13.809Z,2.10
2024-04-10T12:46:13.832Z,2.20
2024-04-10T12:47:13.776Z,1.80
2024-04-10T12:48:13.860Z,2.30
2024-04-10T12:49:13.714Z,2.10
2024-04-10T12:50:13.798Z,2.00
2024-04-10T12:51:13.738Z,2.30
2024-04-10T12:52:13.724Z,2.00
2024-04-10T12:53:13.713Z,2.00
2024-04-10T12:54:13.668Z,2.20
2024-04-10T12:55:13.760Z,2.30
2024-04-10T12:56:13.887Z,2.10
2024-04-10T12:57:13.662Z,2.20
2024-04-10T12:58:13.659Z,2.20
2024-04-10T12:59:14.446Z,2.00
2024-04-10T13:00:13.710Z,2.20
2024-04-10T13:01:13.750Z,2.00
2024-04-10T13:02:13.709Z,2.20
2024-04-10T13:03:13.674Z,2.20
2024-04-10T13:04:13.709Z,2.20
2024-04-10T13:05:13.800Z,2.00
2024-04-10T13:06:13.747Z,2.00
2024-04-10T13:07:13.569Z,2.20
2024-04-10T13:08:13.676Z,2.00
2024-04-10T13:09:13.619Z,1.90
2024-04-10T13:10:13.569Z,2.00
2024-04-10T13:11:13.583Z,2.10
2024-04-10T13:12:13.723Z,2.00
2024-04-10T13:13:23.789Z,1.90
2024-04-10T13:14:15.614Z,1.80
2024-04-10T13:15:13.635Z,2.10
2024-04-10T13:16:13.554Z,2.10
2024-04-10T13:17:13.544Z,1.90
2024-04-10T13:18:13.526Z,2.00